sensor_id;sensor_type;location;lat;lon;timestamp;P1;durP1;ratioP1;P2;durP2;ratioP2
30605;SDS011;17371;51.328;3.860;2023-02-28T00:01:51;11.30;;;5.97;;
30605;SDS011;17371;51.328;3.860;2023-02-28T00:04:17;9.37;;;5.57;;
30605;SDS011;17371;51.328;3.860;2023-02-28T00:06:44;9.25;;;5.47;;
30605;SDS011;17371;51.328;3.860;2023-02-28T00:09:09;10.82;;;6.13;;
30605;SDS011;17371;51.328;3.860;2023-02-28T00:11:34;8.83;;;5.63;;
30605;SDS011;17371;51.328;3.860;2023-02-28T00:14:00;9.75;;;6.10;;
30605;SDS011;17371;51.328;3.860;2023-02-28T00:16:25;10.77;;;5.00;;
30605;SDS011;17371;51.328;3.860;2023-02-28T00:18:51;9.30;;;5.40;;
30605;SDS011;17371;51.328;3.860;2023-02-28T00:21:16;10.90;;;5.63;;
30605;SDS011;17371;51.328;3.860;2023-02-28T00:23:44;9.75;;;5.60;;
30605;SDS011;17371;51.328;3.860;2023-02-28T00:26:10;11.43;;;5.13;;
30605;SDS011;17371;51.328;3.860;2023-02-28T00:28:35;13.47;;;6.20;;
30605;SDS011;17371;51.328;3.860;2023-02-28T00:31:01;13.10;;;5.13;;
30605;SDS011;17371;51.328;3.860;2023-02-28T00:33:27;13.53;;;5.50;;
30605;SDS011;17371;51.328;3.860;2023-02-28T00:36:00;9.63;;;5.53;;
30605;SDS011;17371;51.328;3.860;2023-02-28T00:38:26;6.70;;;4.20;;
30605;SDS011;17371;51.328;3.860;2023-02-28T00:40:53;7.72;;;4.93;;
30605;SDS011;17371;51.328;3.860;2023-02-28T00:43:18;9.45;;;5.05;;
30605;SDS011;17371;51.328;3.860;2023-02-28T00:45:44;8.83;;;5.40;;
30605;SDS011;17371;51.328;3.860;2023-02-28T00:48:09;9.57;;;5.28;;
30605;SDS011;17371;51.328;3.860;2023-02-28T00:50:34;10.30;;;5.18;;
30605;SDS011;17371;51.328;3.860;2023-02-28T00:53:00;12.60;;;5.80;;
30605;SDS011;17371;51.328;3.860;2023-02-28T00:55:25;11.83;;;5.37;;
30605;SDS011;17371;51.328;3.860;2023-02-28T00:57:52;12.23;;;5.77;;
30605;SDS011;17371;51.328;3.860;2023-02-28T01:00:17;11.60;;;5.10;;
30605;SDS011;17371;51.328;3.860;2023-02-28T01:02:43;11.60;;;5.77;;
30605;SDS011;17371;51.328;3.860;2023-02-28T01:05:08;10.05;;;5.40;;
30605;SDS011;17371;51.328;3.860;2023-02-28T01:07:34;8.60;;;5.07;;
30605;SDS011;17371;51.328;3.860;2023-02-28T01:09:59;10.30;;;5.27;;
30605;SDS011;17371;51.328;3.860;2023-02-28T01:12:25;10.17;;;5.50;;
30605;SDS011;17371;51.328;3.860;2023-02-28T01:14:51;11.73;;;5.63;;
30605;SDS011;17371;51.328;3.860;2023-02-28T01:17:17;10.55;;;5.55;;
30605;SDS011;17371;51.328;3.860;2023-02-28T01:19:42;8.40;;;4.93;;
30605;SDS011;17371;51.328;3.860;2023-02-28T01:22:08;9.57;;;6.17;;
30605;SDS011;17371;51.328;3.860;2023-02-28T01:24:33;10.03;;;5.33;;
30605;SDS011;17371;51.328;3.860;2023-02-28T01:26:58;12.00;;;5.65;;
30605;SDS011;17371;51.328;3.860;2023-02-28T01:29:24;9.27;;;5.40;;
30605;SDS011;17371;51.328;3.860;2023-02-28T01:31:51;9.97;;;5.50;;
30605;SDS011;17371;51.328;3.860;2023-02-28T01:34:16;12.57;;;6.18;;
30605;SDS011;17371;51.328;3.860;2023-02-28T01:36:41;12.83;;;6.10;;
30605;SDS011;17371;51.328;3.860;2023-02-28T01:39:07;12.20;;;6.10;;
30605;SDS011;17371;51.328;3.860;2023-02-28T01:41:33;11.70;;;6.83;;
30605;SDS011;17371;51.328;3.860;2023-02-28T01:44:00;11.23;;;6.07;;
30605;SDS011;17371;51.328;3.860;2023-02-28T01:46:27;11.52;;;5.90;;
30605;SDS011;17371;51.328;3.860;2023-02-28T01:48:56;12.97;;;6.57;;
30605;SDS011;17371;51.328;3.860;2023-02-28T01:51:26;12.60;;;6.00;;
30605;SDS011;17371;51.328;3.860;2023-02-28T01:53:52;12.93;;;6.35;;
30605;SDS011;17371;51.328;3.860;2023-02-28T01:56:20;9.00;;;6.30;;
30605;SDS011;17371;51.328;3.860;2023-02-28T01:58:47;10.15;;;5.93;;
30605;SDS011;17371;51.328;3.860;2023-02-28T02:01:13;11.60;;;6.78;;
30605;SDS011;17371;51.328;3.860;2023-02-28T02:03:39;12.87;;;6.13;;
30605;SDS011;17371;51.328;3.860;2023-02-28T02:06:06;10.60;;;5.73;;
30605;SDS011;17371;51.328;3.860;2023-02-28T02:08:31;14.93;;;6.88;;
30605;SDS011;17371;51.328;3.860;2023-02-28T02:10:57;13.60;;;6.60;;
30605;SDS011;17371;51.328;3.860;2023-02-28T02:13:34;15.35;;;7.00;;
30605;SDS011;17371;51.328;3.860;2023-02-28T02:16:20;12.05;;;6.30;;
30605;SDS011;17371;51.328;3.860;2023-02-28T02:18:51;13.18;;;6.72;;
30605;SDS011;17371;51.328;3.860;2023-02-28T02:21:25;13.73;;;7.00;;
30605;SDS011;17371;51.328;3.860;2023-02-28T02:24:36;13.43;;;5.20;;
30605;SDS011;17371;51.328;3.860;2023-02-28T02:27:36;12.05;;;6.53;;
30605;SDS011;17371;51.328;3.860;2023-02-28T02:33:04;10.13;;;5.38;;
30605;SDS011;17371;51.328;3.860;2023-02-28T02:35:33;11.13;;;6.30;;
30605;SDS011;17371;51.328;3.860;2023-02-28T02:38:04;12.70;;;6.53;;
30605;SDS011;17371;51.328;3.860;2023-02-28T02:40:34;12.02;;;5.85;;
30605;SDS011;17371;51.328;3.860;2023-02-28T02:43:03;11.82;;;6.00;;
30605;SDS011;17371;51.328;3.860;2023-02-28T02:45:32;11.98;;;6.95;;
30605;SDS011;17371;51.328;3.860;2023-02-28T02:47:59;10.37;;;5.60;;
30605;SDS011;17371;51.328;3.860;2023-02-28T02:50:26;12.85;;;7.32;;
30605;SDS011;17371;51.328;3.860;2023-02-28T02:52:56;10.82;;;6.07;;
30605;SDS011;17371;51.328;3.860;2023-02-28T02:55:25;12.57;;;6.95;;
30605;SDS011;17371;51.328;3.860;2023-02-28T02:57:51;9.83;;;6.90;;
30605;SDS011;17371;51.328;3.860;2023-02-28T03:00:18;10.80;;;6.25;;
30605;SDS011;17371;51.328;3.860;2023-02-28T03:02:48;11.52;;;6.28;;
30605;SDS011;17371;51.328;3.860;2023-02-28T03:05:16;10.57;;;6.37;;
30605;SDS011;17371;51.328;3.860;2023-02-28T03:07:44;11.30;;;6.05;;
30605;SDS011;17371;51.328;3.860;2023-02-28T03:10:28;12.80;;;7.57;;
30605;SDS011;17371;51.328;3.860;2023-02-28T03:12:58;10.38;;;6.35;;
30605;SDS011;17371;51.328;3.860;2023-02-28T03:15:30;12.52;;;6.47;;
30605;SDS011;17371;51.328;3.860;2023-02-28T03:18:01;10.07;;;5.43;;
30605;SDS011;17371;51.328;3.860;2023-02-28T03:20:33;12.30;;;6.50;;
30605;SDS011;17371;51.328;3.860;2023-02-28T03:23:04;18.07;;;6.60;;
30605;SDS011;17371;51.328;3.860;2023-02-28T03:25:38;12.18;;;6.60;;
30605;SDS011;17371;51.328;3.860;2023-02-28T03:28:12;13.77;;;6.85;;
30605;SDS011;17371;51.328;3.860;2023-02-28T03:30:41;13.70;;;6.68;;
30605;SDS011;17371;51.328;3.860;2023-02-28T03:33:12;13.88;;;7.43;;
30605;SDS011;17371;51.328;3.860;2023-02-28T03:35:41;10.00;;;6.20;;
30605;SDS011;17371;51.328;3.860;2023-02-28T03:38:09;14.90;;;6.82;;
30605;SDS011;17371;51.328;3.860;2023-02-28T03:40:37;12.55;;;6.70;;
30605;SDS011;17371;51.328;3.860;2023-02-28T03:43:07;14.43;;;7.20;;
30605;SDS011;17371;51.328;3.860;2023-02-28T03:45:35;12.13;;;6.97;;
30605;SDS011;17371;51.328;3.860;2023-02-28T03:48:03;13.50;;;6.23;;
30605;SDS011;17371;51.328;3.860;2023-02-28T03:50:34;11.75;;;6.65;;
30605;SDS011;17371;51.328;3.860;2023-02-28T03:53:02;13.68;;;7.13;;
30605;SDS011;17371;51.328;3.860;2023-02-28T03:55:30;12.15;;;7.20;;
30605;SDS011;17371;51.328;3.860;2023-02-28T03:58:01;19.45;;;6.05;;
30605;SDS011;17371;51.328;3.860;2023-02-28T04:00:27;9.57;;;6.00;;
30605;SDS011;17371;51.328;3.860;2023-02-28T04:02:55;13.75;;;6.60;;
30605;SDS011;17371;51.328;3.860;2023-02-28T04:05:20;10.00;;;6.87;;
30605;SDS011;17371;51.328;3.860;2023-02-28T04:07:46;15.65;;;7.70;;
30605;SDS011;17371;51.328;3.860;2023-02-28T04:10:11;10.30;;;7.20;;
30605;SDS011;17371;51.328;3.860;2023-02-28T04:12:38;19.15;;;7.72;;
30605;SDS011;17371;51.328;3.860;2023-02-28T04:15:05;13.37;;;6.37;;
30605;SDS011;17371;51.328;3.860;2023-02-28T04:17:32;12.55;;;6.78;;
30605;SDS011;17371;51.328;3.860;2023-02-28T04:19:57;13.30;;;6.53;;
30605;SDS011;17371;51.328;3.860;2023-02-28T04:22:22;11.33;;;6.67;;
30605;SDS011;17371;51.328;3.860;2023-02-28T04:24:48;10.77;;;5.63;;
30605;SDS011;17371;51.328;3.860;2023-02-28T04:27:13;11.90;;;6.63;;
30605;SDS011;17371;51.328;3.860;2023-02-28T04:29:39;11.33;;;7.03;;
30605;SDS011;17371;51.328;3.860;2023-02-28T04:32:06;13.37;;;6.53;;
30605;SDS011;17371;51.328;3.860;2023-02-28T04:34:31;14.75;;;7.20;;
30605;SDS011;17371;51.328;3.860;2023-02-28T04:36:57;11.60;;;6.53;;
30605;SDS011;17371;51.328;3.860;2023-02-28T04:39:23;11.63;;;6.72;;
30605;SDS011;17371;51.328;3.860;2023-02-28T04:41:49;11.80;;;7.03;;
30605;SDS011;17371;51.328;3.860;2023-02-28T04:44:15;12.60;;;6.73;;
30605;SDS011;17371;51.328;3.860;2023-02-28T04:46:40;12.07;;;6.43;;
30605;SDS011;17371;51.328;3.860;2023-02-28T04:49:07;11.80;;;6.82;;
30605;SDS011;17371;51.328;3.860;2023-02-28T04:51:33;10.20;;;6.57;;
30605;SDS011;17371;51.328;3.860;2023-02-28T04:53:58;11.85;;;6.43;;
30605;SDS011;17371;51.328;3.860;2023-02-28T04:56:23;11.35;;;6.95;;
30605;SDS011;17371;51.328;3.860;2023-02-28T04:58:49;11.87;;;6.63;;
30605;SDS011;17371;51.328;3.860;2023-02-28T05:01:16;12.97;;;6.63;;
30605;SDS011;17371;51.328;3.860;2023-02-28T05:03:43;16.02;;;7.00;;
30605;SDS011;17371;51.328;3.860;2023-02-28T05:06:10;12.57;;;6.07;;
30605;SDS011;17371;51.328;3.860;2023-02-28T05:08:36;11.60;;;7.15;;
30605;SDS011;17371;51.328;3.860;2023-02-28T05:11:02;13.60;;;7.17;;
30605;SDS011;17371;51.328;3.860;2023-02-28T05:13:28;13.80;;;6.72;;
30605;SDS011;17371;51.328;3.860;2023-02-28T05:15:53;12.83;;;7.77;;
30605;SDS011;17371;51.328;3.860;2023-02-28T05:18:18;13.37;;;7.13;;
30605;SDS011;17371;51.328;3.860;2023-02-28T05:20:44;10.02;;;5.97;;
30605;SDS011;17371;51.328;3.860;2023-02-28T05:23:11;10.82;;;5.90;;
30605;SDS011;17371;51.328;3.860;2023-02-28T05:25:38;11.40;;;6.73;;
30605;SDS011;17371;51.328;3.860;2023-02-28T05:28:03;14.38;;;7.00;;
30605;SDS011;17371;51.328;3.860;2023-02-28T05:30:29;11.70;;;6.90;;
30605;SDS011;17371;51.328;3.860;2023-02-28T05:32:54;12.60;;;6.60;;
30605;SDS011;17371;51.328;3.860;2023-02-28T05:35:19;11.37;;;7.00;;
30605;SDS011;17371;51.328;3.860;2023-02-28T05:37:45;9.90;;;6.37;;
30605;SDS011;17371;51.328;3.860;2023-02-28T05:40:12;15.40;;;7.13;;
30605;SDS011;17371;51.328;3.860;2023-02-28T05:42:37;12.18;;;7.32;;
30605;SDS011;17371;51.328;3.860;2023-02-28T05:45:03;10.23;;;6.13;;
30605;SDS011;17371;51.328;3.860;2023-02-28T05:47:29;13.25;;;7.20;;
30605;SDS011;17371;51.328;3.860;2023-02-28T05:49:55;10.77;;;5.67;;
30605;SDS011;17371;51.328;3.860;2023-02-28T05:52:20;15.23;;;7.00;;
30605;SDS011;17371;51.328;3.860;2023-02-28T05:54:46;13.93;;;6.70;;
30605;SDS011;17371;51.328;3.860;2023-02-28T05:57:13;11.80;;;6.97;;
30605;SDS011;17371;51.328;3.860;2023-02-28T05:59:38;11.77;;;5.38;;
30605;SDS011;17371;51.328;3.860;2023-02-28T06:02:04;11.20;;;6.97;;
30605;SDS011;17371;51.328;3.860;2023-02-28T06:04:29;12.10;;;7.33;;
30605;SDS011;17371;51.328;3.860;2023-02-28T06:06:54;9.90;;;4.50;;
30605;SDS011;17371;51.328;3.860;2023-02-28T06:09:20;8.52;;;5.25;;
30605;SDS011;17371;51.328;3.860;2023-02-28T06:11:45;5.15;;;3.55;;
30605;SDS011;17371;51.328;3.860;2023-02-28T06:14:14;15.67;;;6.90;;
30605;SDS011;17371;51.328;3.860;2023-02-28T06:16:40;10.73;;;6.20;;
30605;SDS011;17371;51.328;3.860;2023-02-28T06:19:06;7.40;;;5.20;;
30605;SDS011;17371;51.328;3.860;2023-02-28T06:21:31;6.87;;;3.63;;
30605;SDS011;17371;51.328;3.860;2023-02-28T06:23:57;8.87;;;4.97;;
30605;SDS011;17371;51.328;3.860;2023-02-28T06:26:23;6.53;;;4.50;;
30605;SDS011;17371;51.328;3.860;2023-02-28T06:28:48;10.43;;;4.73;;
30605;SDS011;17371;51.328;3.860;2023-02-28T06:31:15;6.83;;;3.80;;
30605;SDS011;17371;51.328;3.860;2023-02-28T06:33:42;3.15;;;2.55;;
30605;SDS011;17371;51.328;3.860;2023-02-28T06:36:08;6.85;;;3.47;;
30605;SDS011;17371;51.328;3.860;2023-02-28T06:38:35;1.83;;;1.70;;
30605;SDS011;17371;51.328;3.860;2023-02-28T06:41:01;5.03;;;3.70;;
30605;SDS011;17371;51.328;3.860;2023-02-28T06:43:27;5.25;;;2.95;;
30605;SDS011;17371;51.328;3.860;2023-02-28T06:45:54;6.22;;;4.20;;
30605;SDS011;17371;51.328;3.860;2023-02-28T06:48:21;9.07;;;4.23;;
30605;SDS011;17371;51.328;3.860;2023-02-28T06:50:46;7.40;;;3.50;;
30605;SDS011;17371;51.328;3.860;2023-02-28T06:53:11;6.20;;;3.60;;
30605;SDS011;17371;51.328;3.860;2023-02-28T06:55:37;7.65;;;3.30;;
30605;SDS011;17371;51.328;3.860;2023-02-28T06:58:02;4.83;;;3.17;;
30605;SDS011;17371;51.328;3.860;2023-02-28T07:00:28;4.73;;;2.93;;
30605;SDS011;17371;51.328;3.860;2023-02-28T07:02:53;3.33;;;2.77;;
30605;SDS011;17371;51.328;3.860;2023-02-28T07:05:20;5.93;;;3.03;;
30605;SDS011;17371;51.328;3.860;2023-02-28T07:07:45;6.35;;;2.90;;
30605;SDS011;17371;51.328;3.860;2023-02-28T07:10:11;4.70;;;3.27;;
30605;SDS011;17371;51.328;3.860;2023-02-28T07:12:36;5.88;;;3.00;;
30605;SDS011;17371;51.328;3.860;2023-02-28T07:15:02;3.93;;;2.53;;
30605;SDS011;17371;51.328;3.860;2023-02-28T07:17:28;6.03;;;2.80;;
30605;SDS011;17371;51.328;3.860;2023-02-28T07:19:53;9.23;;;3.63;;
30605;SDS011;17371;51.328;3.860;2023-02-28T07:22:20;5.97;;;3.37;;
30605;SDS011;17371;51.328;3.860;2023-02-28T07:24:45;6.90;;;3.45;;
30605;SDS011;17371;51.328;3.860;2023-02-28T07:27:11;5.53;;;2.80;;
30605;SDS011;17371;51.328;3.860;2023-02-28T07:29:36;4.43;;;3.23;;
30605;SDS011;17371;51.328;3.860;2023-02-28T07:32:01;6.20;;;3.77;;
30605;SDS011;17371;51.328;3.860;2023-02-28T07:34:27;6.20;;;3.50;;
30605;SDS011;17371;51.328;3.860;2023-02-28T07:36:52;4.70;;;2.60;;
30605;SDS011;17371;51.328;3.860;2023-02-28T07:39:19;4.27;;;2.30;;
30605;SDS011;17371;51.328;3.860;2023-02-28T07:41:45;4.05;;;3.08;;
30605;SDS011;17371;51.328;3.860;2023-02-28T07:44:11;2.83;;;1.90;;
30605;SDS011;17371;51.328;3.860;2023-02-28T07:46:36;5.55;;;2.95;;
30605;SDS011;17371;51.328;3.860;2023-02-28T07:49:02;7.57;;;3.00;;
30605;SDS011;17371;51.328;3.860;2023-02-28T07:51:27;3.53;;;2.80;;
30605;SDS011;17371;51.328;3.860;2023-02-28T07:53:53;4.60;;;3.03;;
30605;SDS011;17371;51.328;3.860;2023-02-28T07:56:19;4.80;;;3.25;;
30605;SDS011;17371;51.328;3.860;2023-02-28T07:58:45;6.73;;;4.03;;
30605;SDS011;17371;51.328;3.860;2023-02-28T08:01:10;5.75;;;3.08;;
30605;SDS011;17371;51.328;3.860;2023-02-28T08:03:36;4.20;;;2.70;;
30605;SDS011;17371;51.328;3.860;2023-02-28T08:06:02;6.43;;;3.30;;
30605;SDS011;17371;51.328;3.860;2023-02-28T08:08:28;5.83;;;3.73;;
30605;SDS011;17371;51.328;3.860;2023-02-28T08:10:53;4.32;;;2.80;;
30605;SDS011;17371;51.328;3.860;2023-02-28T08:13:20;6.50;;;3.97;;
30605;SDS011;17371;51.328;3.860;2023-02-28T08:15:45;5.45;;;4.15;;
30605;SDS011;17371;51.328;3.860;2023-02-28T08:18:11;6.20;;;3.67;;
30605;SDS011;17371;51.328;3.860;2023-02-28T08:20:36;5.63;;;3.80;;
30605;SDS011;17371;51.328;3.860;2023-02-28T08:23:02;8.53;;;3.87;;
30605;SDS011;17371;51.328;3.860;2023-02-28T08:25:27;6.83;;;3.70;;
30605;SDS011;17371;51.328;3.860;2023-02-28T08:27:52;7.97;;;4.07;;
30605;SDS011;17371;51.328;3.860;2023-02-28T08:30:19;4.30;;;3.20;;
30605;SDS011;17371;51.328;3.860;2023-02-28T08:32:44;7.55;;;4.22;;
30605;SDS011;17371;51.328;3.860;2023-02-28T08:35:10;8.97;;;3.73;;
30605;SDS011;17371;51.328;3.860;2023-02-28T08:37:35;8.20;;;4.10;;
30605;SDS011;17371;51.328;3.860;2023-02-28T08:40:01;8.17;;;4.30;;
30605;SDS011;17371;51.328;3.860;2023-02-28T08:42:26;6.70;;;4.27;;
30605;SDS011;17371;51.328;3.860;2023-02-28T08:44:52;4.47;;;3.00;;
30605;SDS011;17371;51.328;3.860;2023-02-28T08:47:18;6.43;;;3.95;;
30605;SDS011;17371;51.328;3.860;2023-02-28T08:49:44;8.00;;;4.67;;
30605;SDS011;17371;51.328;3.860;2023-02-28T08:52:09;8.40;;;4.63;;
30605;SDS011;17371;51.328;3.860;2023-02-28T08:54:35;5.83;;;3.07;;
30605;SDS011;17371;51.328;3.860;2023-02-28T08:57:00;6.97;;;4.67;;
30605;SDS011;17371;51.328;3.860;2023-02-28T08:59:26;7.80;;;4.77;;
30605;SDS011;17371;51.328;3.860;2023-02-28T09:01:53;7.07;;;4.40;;
30605;SDS011;17371;51.328;3.860;2023-02-28T09:04:19;10.30;;;4.60;;
30605;SDS011;17371;51.328;3.860;2023-02-28T09:06:45;6.47;;;4.60;;
30605;SDS011;17371;51.328;3.860;2023-02-28T09:09:10;7.60;;;4.90;;
30605;SDS011;17371;51.328;3.860;2023-02-28T09:11:36;5.22;;;3.47;;
30605;SDS011;17371;51.328;3.860;2023-02-28T09:14:01;7.07;;;4.85;;
30605;SDS011;17371;51.328;3.860;2023-02-28T09:16:27;7.07;;;4.53;;
30605;SDS011;17371;51.328;3.860;2023-02-28T09:18:52;7.07;;;4.93;;
30605;SDS011;17371;51.328;3.860;2023-02-28T09:21:19;6.17;;;4.53;;
30605;SDS011;17371;51.328;3.860;2023-02-28T09:23:45;5.63;;;4.10;;
30605;SDS011;17371;51.328;3.860;2023-02-28T09:26:15;7.13;;;4.30;;
30605;SDS011;17371;51.328;3.860;2023-02-28T09:28:41;5.82;;;3.97;;
30605;SDS011;17371;51.328;3.860;2023-02-28T09:31:10;5.85;;;4.40;;
30605;SDS011;17371;51.328;3.860;2023-02-28T09:33:37;5.30;;;3.73;;
30605;SDS011;17371;51.328;3.860;2023-02-28T09:36:02;6.13;;;2.97;;
30605;SDS011;17371;51.328;3.860;2023-02-28T09:38:30;4.80;;;3.25;;
30605;SDS011;17371;51.328;3.860;2023-02-28T09:40:56;8.15;;;4.50;;
30605;SDS011;17371;51.328;3.860;2023-02-28T09:43:23;6.07;;;3.47;;
30605;SDS011;17371;51.328;3.860;2023-02-28T09:45:51;5.40;;;3.63;;
30605;SDS011;17371;51.328;3.860;2023-02-28T09:48:20;7.20;;;4.40;;
30605;SDS011;17371;51.328;3.860;2023-02-28T09:50:48;8.63;;;5.00;;
30605;SDS011;17371;51.328;3.860;2023-02-28T09:53:16;6.50;;;3.97;;
30605;SDS011;17371;51.328;3.860;2023-02-28T09:55:47;7.03;;;5.10;;
30605;SDS011;17371;51.328;3.860;2023-02-28T09:58:15;6.72;;;4.18;;
30605;SDS011;17371;51.328;3.860;2023-02-28T10:00:44;8.67;;;4.63;;
30605;SDS011;17371;51.328;3.860;2023-02-28T10:03:24;7.70;;;4.90;;
30605;SDS011;17371;51.328;3.860;2023-02-28T10:05:51;8.10;;;4.50;;
30605;SDS011;17371;51.328;3.860;2023-02-28T10:08:18;7.53;;;4.68;;
30605;SDS011;17371;51.328;3.860;2023-02-28T10:10:45;8.82;;;3.75;;
30605;SDS011;17371;51.328;3.860;2023-02-28T10:13:15;6.17;;;3.90;;
30605;SDS011;17371;51.328;3.860;2023-02-28T10:15:45;7.10;;;4.90;;
30605;SDS011;17371;51.328;3.860;2023-02-28T10:18:13;6.47;;;4.50;;
30605;SDS011;17371;51.328;3.860;2023-02-28T10:20:41;7.97;;;4.13;;
30605;SDS011;17371;51.328;3.860;2023-02-28T10:23:09;6.85;;;4.25;;
30605;SDS011;17371;51.328;3.860;2023-02-28T10:25:38;7.53;;;4.03;;
30605;SDS011;17371;51.328;3.860;2023-02-28T10:28:09;8.32;;;5.20;;
30605;SDS011;17371;51.328;3.860;2023-02-28T10:30:36;7.90;;;4.75;;
30605;SDS011;17371;51.328;3.860;2023-02-28T10:33:04;6.13;;;3.67;;
30605;SDS011;17371;51.328;3.860;2023-02-28T10:35:30;6.50;;;3.53;;
30605;SDS011;17371;51.328;3.860;2023-02-28T10:37:56;10.20;;;4.43;;
30605;SDS011;17371;51.328;3.860;2023-02-28T10:40:28;13.98;;;4.78;;
30605;SDS011;17371;51.328;3.860;2023-02-28T10:42:56;5.25;;;3.83;;
30605;SDS011;17371;51.328;3.860;2023-02-28T10:45:24;8.00;;;4.63;;
30605;SDS011;17371;51.328;3.860;2023-02-28T10:47:51;4.78;;;3.17;;
30605;SDS011;17371;51.328;3.860;2023-02-28T10:50:28;5.82;;;4.05;;
30605;SDS011;17371;51.328;3.860;2023-02-28T10:52:57;4.32;;;2.67;;
30605;SDS011;17371;51.328;3.860;2023-02-28T10:55:32;5.15;;;3.58;;
30605;SDS011;17371;51.328;3.860;2023-02-28T10:57:58;7.00;;;3.80;;
30605;SDS011;17371;51.328;3.860;2023-02-28T11:00:25;5.97;;;4.00;;
30605;SDS011;17371;51.328;3.860;2023-02-28T11:02:50;4.78;;;3.67;;
30605;SDS011;17371;51.328;3.860;2023-02-28T11:05:23;4.70;;;3.30;;
30605;SDS011;17371;51.328;3.860;2023-02-28T11:07:51;8.43;;;4.13;;
30605;SDS011;17371;51.328;3.860;2023-02-28T11:10:18;8.63;;;4.30;;
30605;SDS011;17371;51.328;3.860;2023-02-28T11:12:45;4.80;;;3.28;;
30605;SDS011;17371;51.328;3.860;2023-02-28T11:15:19;5.03;;;3.00;;
30605;SDS011;17371;51.328;3.860;2023-02-28T11:17:53;6.40;;;4.25;;
30605;SDS011;17371;51.328;3.860;2023-02-28T11:20:20;4.77;;;2.87;;
30605;SDS011;17371;51.328;3.860;2023-02-28T11:22:47;8.65;;;3.80;;
30605;SDS011;17371;51.328;3.860;2023-02-28T11:25:16;5.30;;;3.40;;
30605;SDS011;17371;51.328;3.860;2023-02-28T11:27:46;4.23;;;2.40;;
30605;SDS011;17371;51.328;3.860;2023-02-28T11:30:29;5.07;;;3.20;;
30605;SDS011;17371;51.328;3.860;2023-02-28T11:32:57;6.68;;;3.72;;
30605;SDS011;17371;51.328;3.860;2023-02-28T11:35:24;5.45;;;3.42;;
30605;SDS011;17371;51.328;3.860;2023-02-28T11:37:52;5.00;;;3.60;;
30605;SDS011;17371;51.328;3.860;2023-02-28T11:40:18;6.13;;;3.53;;
30605;SDS011;17371;51.328;3.860;2023-02-28T11:42:54;3.22;;;2.38;;
30605;SDS011;17371;51.328;3.860;2023-02-28T11:45:30;4.57;;;3.55;;
30605;SDS011;17371;51.328;3.860;2023-02-28T11:48:12;4.20;;;2.30;;
30605;SDS011;17371;51.328;3.860;2023-02-28T11:50:45;7.03;;;3.67;;
30605;SDS011;17371;51.328;3.860;2023-02-28T11:53:17;4.25;;;3.35;;
30605;SDS011;17371;51.328;3.860;2023-02-28T11:55:48;5.15;;;2.80;;
30605;SDS011;17371;51.328;3.860;2023-02-28T11:58:17;4.80;;;3.50;;
30605;SDS011;17371;51.328;3.860;2023-02-28T12:00:54;7.67;;;2.70;;
30605;SDS011;17371;51.328;3.860;2023-02-28T12:03:41;4.03;;;3.00;;
30605;SDS011;17371;51.328;3.860;2023-02-28T12:06:13;4.88;;;3.17;;
30605;SDS011;17371;51.328;3.860;2023-02-28T12:08:44;4.32;;;2.47;;
30605;SDS011;17371;51.328;3.860;2023-02-28T12:11:16;2.80;;;2.03;;
30605;SDS011;17371;51.328;3.860;2023-02-28T12:13:48;4.40;;;2.80;;
30605;SDS011;17371;51.328;3.860;2023-02-28T12:16:27;3.03;;;2.10;;
30605;SDS011;17371;51.328;3.860;2023-02-28T12:19:03;4.30;;;3.38;;
30605;SDS011;17371;51.328;3.860;2023-02-28T12:21:41;4.88;;;2.53;;
30605;SDS011;17371;51.328;3.860;2023-02-28T12:24:21;2.83;;;1.83;;
30605;SDS011;17371;51.328;3.860;2023-02-28T12:26:58;4.80;;;3.33;;
30605;SDS011;17371;51.328;3.860;2023-02-28T12:29:26;4.63;;;3.03;;
30605;SDS011;17371;51.328;3.860;2023-02-28T12:31:55;4.80;;;3.55;;
30605;SDS011;17371;51.328;3.860;2023-02-28T12:34:25;5.63;;;3.88;;
30605;SDS011;17371;51.328;3.860;2023-02-28T12:36:52;5.60;;;3.97;;
30605;SDS011;17371;51.328;3.860;2023-02-28T12:39:20;5.30;;;3.97;;
30605;SDS011;17371;51.328;3.860;2023-02-28T12:41:50;4.95;;;3.22;;
30605;SDS011;17371;51.328;3.860;2023-02-28T12:44:18;4.18;;;3.13;;
30605;SDS011;17371;51.328;3.860;2023-02-28T12:46:46;6.00;;;3.42;;
30605;SDS011;17371;51.328;3.860;2023-02-28T12:49:15;5.63;;;3.45;;
30605;SDS011;17371;51.328;3.860;2023-02-28T12:51:44;5.17;;;3.47;;
30605;SDS011;17371;51.328;3.860;2023-02-28T12:54:12;6.03;;;2.72;;
30605;SDS011;17371;51.328;3.860;2023-02-28T12:56:45;5.90;;;3.72;;
30605;SDS011;17371;51.328;3.860;2023-02-28T12:59:14;5.95;;;3.40;;
30605;SDS011;17371;51.328;3.860;2023-02-28T13:04:42;5.30;;;3.27;;
30605;SDS011;17371;51.328;3.860;2023-02-28T13:07:33;6.13;;;3.42;;
30605;SDS011;17371;51.328;3.860;2023-02-28T13:10:08;2.78;;;2.28;;
30605;SDS011;17371;51.328;3.860;2023-02-28T13:12:34;5.27;;;3.80;;
30605;SDS011;17371;51.328;3.860;2023-02-28T13:15:02;6.05;;;3.92;;
30605;SDS011;17371;51.328;3.860;2023-02-28T13:17:32;4.85;;;3.50;;
30605;SDS011;17371;51.328;3.860;2023-02-28T13:19:58;4.10;;;2.47;;
30605;SDS011;17371;51.328;3.860;2023-02-28T13:22:38;5.53;;;3.63;;
30605;SDS011;17371;51.328;3.860;2023-02-28T13:28:00;4.03;;;3.08;;
30605;SDS011;17371;51.328;3.860;2023-02-28T13:33:26;3.70;;;2.47;;
30605;SDS011;17371;51.328;3.860;2023-02-28T13:36:08;4.10;;;3.55;;
30605;SDS011;17371;51.328;3.860;2023-02-28T13:38:38;8.35;;;3.55;;
30605;SDS011;17371;51.328;3.860;2023-02-28T13:44:08;5.93;;;3.70;;
30605;SDS011;17371;51.328;3.860;2023-02-28T13:46:35;5.45;;;3.17;;
30605;SDS011;17371;51.328;3.860;2023-02-28T13:49:23;4.50;;;3.40;;
30605;SDS011;17371;51.328;3.860;2023-02-28T13:51:50;12.48;;;4.38;;
30605;SDS011;17371;51.328;3.860;2023-02-28T13:54:24;3.10;;;2.20;;
30605;SDS011;17371;51.328;3.860;2023-02-28T13:57:01;5.07;;;3.67;;
30605;SDS011;17371;51.328;3.860;2023-02-28T13:59:33;4.68;;;3.33;;
30605;SDS011;17371;51.328;3.860;2023-02-28T14:02:12;5.38;;;4.03;;
30605;SDS011;17371;51.328;3.860;2023-02-28T14:05:00;5.25;;;3.42;;
30605;SDS011;17371;51.328;3.860;2023-02-28T14:07:27;4.38;;;3.38;;
30605;SDS011;17371;51.328;3.860;2023-02-28T14:09:58;4.27;;;3.00;;
30605;SDS011;17371;51.328;3.860;2023-02-28T14:15:26;4.05;;;3.05;;
30605;SDS011;17371;51.328;3.860;2023-02-28T14:17:59;4.60;;;2.90;;
30605;SDS011;17371;51.328;3.860;2023-02-28T14:20:26;9.27;;;3.83;;
30605;SDS011;17371;51.328;3.860;2023-02-28T14:22:55;5.03;;;3.30;;
30605;SDS011;17371;51.328;3.860;2023-02-28T14:25:31;5.00;;;3.47;;
30605;SDS011;17371;51.328;3.860;2023-02-28T14:28:02;5.55;;;3.97;;
30605;SDS011;17371;51.328;3.860;2023-02-28T14:33:20;7.55;;;3.60;;
30605;SDS011;17371;51.328;3.860;2023-02-28T14:38:32;4.38;;;3.45;;
30605;SDS011;17371;51.328;3.860;2023-02-28T14:41:02;4.63;;;3.22;;
30605;SDS011;17371;51.328;3.860;2023-02-28T14:43:30;6.18;;;3.50;;
30605;SDS011;17371;51.328;3.860;2023-02-28T14:45:56;3.20;;;2.20;;
30605;SDS011;17371;51.328;3.860;2023-02-28T14:48:23;7.10;;;3.95;;
30605;SDS011;17371;51.328;3.860;2023-02-28T14:50:49;4.97;;;3.00;;
30605;SDS011;17371;51.328;3.860;2023-02-28T14:53:17;5.05;;;3.30;;
30605;SDS011;17371;51.328;3.860;2023-02-28T14:55:44;4.82;;;3.75;;
30605;SDS011;17371;51.328;3.860;2023-02-28T14:58:19;3.67;;;3.03;;
30605;SDS011;17371;51.328;3.860;2023-02-28T15:00:48;4.57;;;3.43;;
30605;SDS011;17371;51.328;3.860;2023-02-28T15:03:17;4.50;;;3.45;;
30605;SDS011;17371;51.328;3.860;2023-02-28T15:05:47;3.78;;;2.70;;
30605;SDS011;17371;51.328;3.860;2023-02-28T15:08:16;4.60;;;2.80;;
30605;SDS011;17371;51.328;3.860;2023-02-28T15:10:42;4.03;;;3.05;;
30605;SDS011;17371;51.328;3.860;2023-02-28T15:13:11;5.27;;;3.43;;